createdAt,value
2019-02-28T00:00:47.207Z,1008.03
2019-02-28T00:03:27.503Z,1008.06
2019-02-28T00:06:48.733Z,1007.95
2019-02-28T00:07:49.585Z,1007.99
2019-02-28T00:08:45.992Z,1007.92
2019-02-28T00:09:44.557Z,1007.98
2019-02-28T00:10:43.310Z,1007.94
2019-02-28T00:11:42.000Z,1007.91
2019-02-28T00:12:40.520Z,1007.94
2019-02-28T00:13:39.198Z,1007.95
2019-02-28T00:16:03.230Z,1007.88
2019-02-28T00:18:24.803Z,1007.87
2019-02-28T00:19:23.930Z,1007.85
2019-02-28T00:20:21.997Z,1007.88
2019-02-28T00:21:20.633Z,1007.85
2019-02-28T00:22:19.223Z,1007.87
2019-02-28T00:23:19.145Z,1007.86
2019-02-28T00:24:16.309Z,1007.83
2019-02-28T00:25:14.961Z,1007.83
2019-02-28T00:26:13.677Z,1007.82
2019-02-28T00:28:36.568Z,1007.81
2019-02-28T00:29:35.144Z,1007.73
2019-02-28T00:30:33.738Z,1007.76
2019-02-28T00:31:32.298Z,1007.74
2019-02-28T00:32:31.127Z,1007.73
2019-02-28T00:33:30.801Z,1007.72
2019-02-28T00:34:28.266Z,1007.65
2019-02-28T00:35:27.212Z,1007.68
2019-02-28T00:36:25.787Z,1007.64
2019-02-28T00:37:25.535Z,1007.63
2019-02-28T00:38:22.836Z,1007.58
2019-02-28T00:39:21.465Z,1007.54
2019-02-28T00:40:19.990Z,1007.55
2019-02-28T00:41:18.597Z,1007.59
2019-02-28T00:42:17.737Z,1007.54
2019-02-28T00:43:15.933Z,1007.48
2019-02-28T00:44:14.498Z,1007.49
2019-02-28T00:45:13.338Z,1007.48
2019-02-28T00:46:11.879Z,1007.42
2019-02-28T00:47:10.405Z,1007.47
2019-02-28T00:48:08.974Z,1007.46
2019-02-28T00:49:07.548Z,1007.46
2019-02-28T00:50:06.123Z,1007.46
2019-02-28T00:51:04.987Z,1007.51
2019-02-28T00:52:03.570Z,1007.5
2019-02-28T00:53:02.184Z,1007.47
2019-02-28T00:54:00.932Z,1007.47
2019-02-28T00:54:59.537Z,1007.44
2019-02-28T00:55:58.093Z,1007.4
2019-02-28T00:56:56.652Z,1007.4
2019-02-28T00:57:56.021Z,1007.4
2019-02-28T00:58:53.981Z,1007.41
2019-02-28T00:59:52.567Z,1007.45
2019-02-28T01:00:51.457Z,1007.39
2019-02-28T01:01:50.053Z,1007.37
2019-02-28T01:02:51.860Z,1007.38
2019-02-28T01:03:47.213Z,1007.37
2019-02-28T01:04:45.742Z,1007.33
2019-02-28T01:05:44.331Z,1007.34
2019-02-28T01:06:42.923Z,1007.36
2019-02-28T01:07:42.314Z,1007.34
2019-02-28T01:08:40.881Z,1007.27
2019-02-28T01:09:39.515Z,1007.29
2019-02-28T01:10:39.198Z,1007.3
2019-02-28T01:11:36.625Z,1007.28
2019-02-28T01:12:35.337Z,1007.29
2019-02-28T01:13:33.844Z,1007.27
2019-02-28T01:14:35.783Z,1007.28
2019-02-28T01:15:31.077Z,1007.27
2019-02-28T01:16:29.675Z,1007.27
2019-02-28T01:17:28.228Z,1007.22
2019-02-28T01:18:26.980Z,1007.26
2019-02-28T01:19:25.518Z,1007.24
2019-02-28T01:20:24.054Z,1007.24
2019-02-28T01:21:23.852Z,1007.21
2019-02-28T01:22:21.091Z,1007.22
2019-02-28T01:23:19.666Z,1007.2
2019-02-28T01:24:18.248Z,1007.23
2019-02-28T01:25:17.096Z,1007.15
2019-02-28T01:26:15.752Z,1007.15
2019-02-28T01:27:14.281Z,1007.14
2019-02-28T01:28:13.015Z,1007.15
2019-02-28T01:29:11.543Z,1007.11
2019-02-28T01:30:10.111Z,1007.13
2019-02-28T01:31:11.546Z,1007.08
2019-02-28T01:32:07.231Z,1007.11
2019-02-28T01:33:05.943Z,1007.05
2019-02-28T01:35:46.183Z,1007.08
2019-02-28T01:36:45.876Z,1007.08
2019-02-28T01:37:43.503Z,1007.09
2019-02-28T01:38:42.021Z,1007.05
2019-02-28T01:39:40.571Z,1007.05
2019-02-28T01:40:39.185Z,1007.03
2019-02-28T01:41:37.745Z,1007.07
2019-02-28T01:42:36.292Z,1007.05
2019-02-28T01:43:34.865Z,1007.04
2019-02-28T01:44:35.783Z,1006.99
2019-02-28T01:45:32.141Z,1007.01
2019-02-28T01:46:30.768Z,1007
2019-02-28T01:47:29.363Z,1006.95
2019-02-28T01:48:27.938Z,1006.95
2019-02-28T01:49:26.956Z,1006.92
2019-02-28T01:50:25.310Z,1006.93
2019-02-28T01:55:49.103Z,1006.96
2019-02-28T01:56:47.713Z,1006.95
2019-02-28T01:57:46.273Z,1006.91
2019-02-28T02:03:45.785Z,1006.9
2019-02-28T02:04:45.732Z,1006.84
2019-02-28T02:05:42.991Z,1006.81
2019-02-28T02:06:41.540Z,1006.84
2019-02-28T02:07:40.115Z,1006.8
2019-02-28T02:10:21.947Z,1006.77
2019-02-28T02:11:20.517Z,1006.79
2019-02-28T02:12:19.161Z,1006.77
2019-02-28T02:13:17.724Z,1006.82
2019-02-28T02:14:16.264Z,1006.76
2019-02-28T02:15:16.767Z,1006.74
2019-02-28T02:16:13.624Z,1006.72
2019-02-28T02:17:12.182Z,1006.65
2019-02-28T02:18:10.737Z,1006.64
2019-02-28T02:19:09.423Z,1006.68
2019-02-28T02:20:07.981Z,1006.62
2019-02-28T02:21:06.643Z,1006.67
2019-02-28T02:23:52.942Z,1006.62
2019-02-28T02:24:49.517Z,1006.67
2019-02-28T02:29:36.264Z,1006.56
2019-02-28T02:30:34.228Z,1006.55
2019-02-28T02:34:53.109Z,1006.49
2019-02-28T02:35:51.624Z,1006.54
2019-02-28T02:36:54.154Z,1006.52
2019-02-28T02:37:49.088Z,1006.54
2019-02-28T02:38:47.654Z,1006.55
2019-02-28T02:39:50.060Z,1006.5
2019-02-28T02:40:44.843Z,1006.5
2019-02-28T02:42:52.596Z,1006.49
2019-02-28T02:43:54.835Z,1006.51
2019-02-28T02:44:49.742Z,1006.5
2019-02-28T02:45:48.362Z,1006.44
2019-02-28T02:46:46.945Z,1006.51
2019-02-28T02:47:46.379Z,1006.42
2019-02-28T02:48:44.131Z,1006.38
2019-02-28T02:49:42.802Z,1006.42
2019-02-28T02:50:41.390Z,1006.4
2019-02-28T02:51:39.949Z,1006.39
2019-02-28T02:52:38.499Z,1006.37
2019-02-28T02:53:41.340Z,1006.41
2019-02-28T02:54:35.841Z,1006.36
2019-02-28T02:55:34.370Z,1006.36
2019-02-28T02:56:40.453Z,1006.3
2019-02-28T02:57:31.491Z,1006.26
2019-02-28T02:58:30.038Z,1006.31
2019-02-28T02:59:28.694Z,1006.31
2019-02-28T03:00:27.226Z,1006.31
2019-02-28T03:01:25.775Z,1006.28
2019-02-28T03:02:24.419Z,1006.28
2019-02-28T03:03:22.988Z,1006.3
2019-02-28T03:04:23.157Z,1006.29
2019-02-28T03:05:20.194Z,1006.22
2019-02-28T03:06:18.904Z,1006.24
2019-02-28T03:07:22.883Z,1006.28
2019-02-28T03:08:16.013Z,1006.28
2019-02-28T03:09:14.645Z,1006.19
2019-02-28T03:10:17.217Z,1006.19
2019-02-28T03:11:11.781Z,1006.15
2019-02-28T03:12:10.311Z,1006.18
2019-02-28T03:13:09.138Z,1006.17
2019-02-28T03:14:07.748Z,1006.2
2019-02-28T03:15:06.371Z,1006.11
2019-02-28T03:16:05.157Z,1006.2
2019-02-28T03:17:09.553Z,1006.18
2019-02-28T03:18:02.347Z,1006.19
2019-02-28T03:19:00.913Z,1006.13
2019-02-28T03:19:59.501Z,1006.12
2019-02-28T03:20:58.250Z,1006.08
2019-02-28T03:21:56.905Z,1006.06
2019-02-28T03:22:55.593Z,1006.06
2019-02-28T03:23:54.137Z,1006.07
2019-02-28T03:24:52.799Z,1006.05
2019-02-28T03:25:51.498Z,1006.05
2019-02-28T03:26:50.074Z,1006.02
2019-02-28T03:27:54.572Z,1006.02
2019-02-28T03:28:47.381Z,1006.03
2019-02-28T03:29:45.940Z,1006.02
2019-02-28T03:30:44.530Z,1005.99
2019-02-28T03:31:54.411Z,1005.98
2019-02-28T03:32:42.779Z,1005.96
2019-02-28T03:33:40.419Z,1006.02
2019-02-28T03:34:39.074Z,1005.95
2019-02-28T03:35:42.918Z,1006
2019-02-28T03:36:36.166Z,1006
2019-02-28T03:37:35.111Z,1005.96
2019-02-28T03:38:33.618Z,1005.99
2019-02-28T03:39:32.194Z,1005.99
2019-02-28T03:40:30.774Z,1006.01
2019-02-28T03:41:29.481Z,1005.92
2019-02-28T03:42:28.853Z,1006.01
2019-02-28T03:43:26.647Z,1005.97
2019-02-28T03:44:25.222Z,1005.96
2019-02-28T03:45:23.802Z,1005.95
2019-02-28T03:46:22.363Z,1005.99
2019-02-28T03:47:23.817Z,1005.9
2019-02-28T03:48:19.548Z,1005.9
2019-02-28T03:49:18.093Z,1005.92
2019-02-28T03:50:16.697Z,1005.9
2019-02-28T03:51:15.397Z,1005.85
2019-02-28T03:52:13.951Z,1005.93
2019-02-28T03:53:19.202Z,1005.91
2019-02-28T03:54:11.288Z,1005.91
2019-02-28T03:55:09.906Z,1005.85
2019-02-28T03:56:08.439Z,1005.89
2019-02-28T03:57:07.046Z,1005.84
2019-02-28T03:58:05.878Z,1005.85
2019-02-28T03:59:04.168Z,1005.91
2019-02-28T04:00:02.738Z,1005.87
2019-02-28T04:01:08.541Z,1005.85
2019-02-28T04:02:00.967Z,1005.88
2019-02-28T04:02:59.629Z,1005.82
2019-02-28T04:03:58.173Z,1005.84
2019-02-28T04:04:56.820Z,1005.83
2019-02-28T04:06:02.852Z,1005.85
2019-02-28T04:06:53.991Z,1005.83
2019-02-28T04:07:54.513Z,1005.8
2019-02-28T04:08:51.115Z,1005.82
2019-02-28T04:09:49.678Z,1005.79
2019-02-28T04:10:48.248Z,1005.84
2019-02-28T04:11:47.115Z,1005.82
2019-02-28T04:12:47.069Z,1005.83
2019-02-28T04:13:44.212Z,1005.81
2019-02-28T04:14:42.934Z,1005.8
2019-02-28T04:15:47.303Z,1005.81
2019-02-28T04:16:40.128Z,1005.84
2019-02-28T04:17:38.696Z,1005.82
2019-02-28T04:18:43.854Z,1005.84
2019-02-28T04:19:35.853Z,1005.81
2019-02-28T04:20:37.291Z,1005.81
2019-02-28T04:21:33.775Z,1005.86
2019-02-28T04:22:32.332Z,1005.81
2019-02-28T04:23:35.416Z,1005.82
2019-02-28T04:24:29.425Z,1005.85
2019-02-28T04:25:27.990Z,1005.89
2019-02-28T04:26:29.688Z,1005.86
2019-02-28T04:29:29.807Z,1005.87
2019-02-28T04:30:23.422Z,1005.85
2019-02-28T04:31:22.050Z,1005.86
2019-02-28T04:32:26.284Z,1005.9
2019-02-28T04:33:19.369Z,1005.9
2019-02-28T04:34:17.914Z,1005.91
2019-02-28T04:35:16.510Z,1005.91
2019-02-28T04:36:15.143Z,1005.91
2019-02-28T04:37:13.692Z,1005.87
2019-02-28T04:38:12.224Z,1005.9
2019-02-28T04:39:10.937Z,1005.9
2019-02-28T04:40:09.470Z,1005.93
2019-02-28T04:41:08.034Z,1005.93
2019-02-28T04:42:06.598Z,1005.92
2019-02-28T04:43:07.203Z,1005.94
2019-02-28T04:44:03.729Z,1005.94
2019-02-28T04:45:02.499Z,1005.95
2019-02-28T04:46:01.087Z,1005.95
2019-02-28T04:46:59.604Z,1005.96
2019-02-28T04:47:58.153Z,1005.96
2019-02-28T04:48:56.695Z,1005.94
2019-02-28T04:49:56.832Z,1005.89
2019-02-28T04:50:54.055Z,1005.99
2019-02-28T04:51:52.662Z,1005.94
2019-02-28T04:52:51.257Z,1005.96
2019-02-28T04:53:52.469Z,1005.98
2019-02-28T04:54:48.465Z,1005.97
2019-02-28T04:55:47.250Z,1005.98
2019-02-28T04:56:46.549Z,1006.02
2019-02-28T04:57:45.258Z,1005.91
2019-02-28T04:58:43.783Z,1006.02
2019-02-28T04:59:42.330Z,1005.93
2019-02-28T05:00:41.294Z,1005.98
2019-02-28T05:01:39.948Z,1006.01
2019-02-28T05:02:38.497Z,1005.96
2019-02-28T05:03:37.048Z,1006.01
2019-02-28T05:04:36.068Z,1006
2019-02-28T05:05:34.283Z,1005.99
2019-02-28T05:06:32.947Z,1006.04
2019-02-28T05:07:31.616Z,1006.08
2019-02-28T05:08:30.217Z,1006.02
2019-02-28T05:09:28.894Z,1006.08
2019-02-28T05:10:27.483Z,1006.04
2019-02-28T05:11:27.329Z,1006.05
2019-02-28T05:12:24.615Z,1006.04
2019-02-28T05:13:23.243Z,1006.06
2019-02-28T05:14:23.666Z,1006.04
2019-02-28T05:15:20.331Z,1006.01
2019-02-28T05:16:19.108Z,1006.08
2019-02-28T05:17:19.283Z,1006.09
2019-02-28T05:18:16.276Z,1006.1
2019-02-28T05:19:15.089Z,1006.05
2019-02-28T05:20:13.636Z,1006.09
2019-02-28T05:21:12.193Z,1006.11
2019-02-28T05:22:10.782Z,1006.13
2019-02-28T05:23:09.363Z,1006.11
2019-02-28T05:24:08.651Z,1006.14
2019-02-28T05:25:06.466Z,1006.11
2019-02-28T05:26:05.311Z,1006.07
2019-02-28T05:27:05.156Z,1006.13
2019-02-28T05:28:06.573Z,1006.09
2019-02-28T05:33:25.757Z,1006.16
2019-02-28T05:34:24.347Z,1006.19
2019-02-28T05:37:11.872Z,1006.22
2019-02-28T05:38:05.593Z,1006.18
2019-02-28T05:39:04.132Z,1006.22
2019-02-28T05:40:06.006Z,1006.25
2019-02-28T05:41:01.597Z,1006.23
2019-02-28T05:42:00.169Z,1006.28
2019-02-28T05:42:59.215Z,1006.29
2019-02-28T05:43:57.715Z,1006.31
2019-02-28T05:44:56.289Z,1006.3
2019-02-28T05:45:55.114Z,1006.34
2019-02-28T05:46:57.465Z,1006.35
2019-02-28T05:47:52.607Z,1006.36
2019-02-28T05:48:51.152Z,1006.39
2019-02-28T05:49:49.699Z,1006.4
2019-02-28T05:50:52.684Z,1006.44
2019-02-28T05:51:46.796Z,1006.41
2019-02-28T05:52:45.699Z,1006.45
2019-02-28T05:53:44.269Z,1006.44
2019-02-28T05:54:43.458Z,1006.44
2019-02-28T05:55:42.048Z,1006.4
2019-02-28T05:56:40.746Z,1006.43
2019-02-28T05:57:43.150Z,1006.44
2019-02-28T05:58:37.866Z,1006.46
2019-02-28T05:59:36.407Z,1006.49
2019-02-28T06:00:36.875Z,1006.43
2019-02-28T06:01:33.860Z,1006.43
2019-02-28T06:02:32.392Z,1006.45
2019-02-28T06:03:30.928Z,1006.49
2019-02-28T06:04:29.494Z,1006.49
2019-02-28T06:05:28.075Z,1006.46
2019-02-28T06:06:26.665Z,1006.45
2019-02-28T06:07:25.902Z,1006.46
2019-02-28T06:08:24.069Z,1006.47
2019-02-28T06:09:22.822Z,1006.48
2019-02-28T06:10:24.526Z,1006.45
2019-02-28T06:11:19.982Z,1006.48
2019-02-28T06:12:18.519Z,1006.47
2019-02-28T06:13:18.223Z,1006.42
2019-02-28T06:14:15.652Z,1006.39
2019-02-28T06:15:14.234Z,1006.4
2019-02-28T06:16:12.788Z,1006.39
2019-02-28T06:17:11.515Z,1006.42
2019-02-28T06:18:10.046Z,1006.43
2019-02-28T06:19:09.070Z,1006.44
2019-02-28T06:20:07.425Z,1006.43
2019-02-28T06:21:06.042Z,1006.44
2019-02-28T06:22:04.650Z,1006.41
2019-02-28T06:23:03.221Z,1006.42
2019-02-28T06:24:01.928Z,1006.48
2019-02-28T06:25:00.461Z,1006.48
2019-02-28T06:26:00.752Z,1006.51
2019-02-28T06:26:58.122Z,1006.48
2019-02-28T06:27:56.728Z,1006.53
2019-02-28T06:28:55.246Z,1006.48
2019-02-28T06:29:53.833Z,1006.48
2019-02-28T06:30:52.342Z,1006.48
2019-02-28T06:31:50.925Z,1006.49
2019-02-28T06:32:49.463Z,1006.46
2019-02-28T06:33:48.023Z,1006.49
2019-02-28T06:34:46.614Z,1006.47
2019-02-28T06:37:27.314Z,1006.48
2019-02-28T06:38:25.836Z,1006.46
2019-02-28T06:39:26.788Z,1006.48
2019-02-28T06:40:23.276Z,1006.5
2019-02-28T06:41:21.829Z,1006.5
2019-02-28T06:42:20.379Z,1006.47
2019-02-28T06:43:19.585Z,1006.43
2019-02-28T06:44:17.929Z,1006.47
2019-02-28T06:45:16.552Z,1006.42
2019-02-28T06:46:15.458Z,1006.44
2019-02-28T06:47:14.745Z,1006.49
2019-02-28T06:49:40.767Z,1006.43
2019-02-28T06:50:35.374Z,1006.39
2019-02-28T06:51:33.911Z,1006.44
2019-02-28T06:52:32.900Z,1006.47
2019-02-28T06:53:33.768Z,1006.43
2019-02-28T06:54:30.241Z,1006.46
2019-02-28T06:55:28.900Z,1006.44
2019-02-28T06:56:27.541Z,1006.44
2019-02-28T06:57:26.733Z,1006.5
2019-02-28T06:58:24.754Z,1006.49
2019-02-28T06:59:23.605Z,1006.44
2019-02-28T07:00:22.123Z,1006.46
2019-02-28T07:01:22.626Z,1006.55
2019-02-28T07:02:19.348Z,1006.46
2019-02-28T07:03:17.933Z,1006.54
2019-02-28T07:04:16.568Z,1006.53
2019-02-28T07:05:15.215Z,1006.52
2019-02-28T07:06:14.226Z,1006.52
2019-02-28T07:07:13.791Z,1006.51
2019-02-28T07:08:12.679Z,1006.55
2019-02-28T07:09:11.213Z,1006.59
2019-02-28T07:10:12.630Z,1006.55
2019-02-28T07:11:08.729Z,1006.58
2019-02-28T07:12:07.507Z,1006.52
2019-02-28T07:13:06.120Z,1006.57
2019-02-28T07:14:04.661Z,1006.58
2019-02-28T07:15:03.276Z,1006.59
2019-02-28T07:16:04.201Z,1006.69
2019-02-28T07:17:00.859Z,1006.7
2019-02-28T07:17:59.712Z,1006.67
2019-02-28T07:18:58.271Z,1006.7
2019-02-28T07:20:01.287Z,1006.69
2019-02-28T07:20:55.630Z,1006.7
2019-02-28T07:21:54.188Z,1006.71
2019-02-28T07:22:55.490Z,1006.76
2019-02-28T07:23:53.269Z,1006.72
2019-02-28T07:24:50.089Z,1006.74
2019-02-28T07:25:48.806Z,1006.69
2019-02-28T07:26:48.258Z,1006.76
2019-02-28T07:27:45.994Z,1006.73
2019-02-28T07:28:44.543Z,1006.77
2019-02-28T07:29:43.719Z,1006.73
2019-02-28T07:30:42.288Z,1006.78
2019-02-28T07:31:40.909Z,1006.74
2019-02-28T07:32:39.506Z,1006.72
2019-02-28T07:33:38.089Z,1006.77
2019-02-28T07:34:36.683Z,1006.74
2019-02-28T07:35:36.861Z,1006.78
2019-02-28T07:36:34.187Z,1006.69
2019-02-28T07:37:32.807Z,1006.76
2019-02-28T07:38:31.456Z,1006.75
2019-02-28T07:39:30.086Z,1006.77
2019-02-28T07:40:28.620Z,1006.79
2019-02-28T07:41:27.615Z,1006.79
2019-02-28T07:42:26.456Z,1006.79
2019-02-28T07:43:25.120Z,1006.76
2019-02-28T07:44:23.735Z,1006.76
2019-02-28T07:45:22.289Z,1006.74
2019-02-28T07:46:20.850Z,1006.69
2019-02-28T07:47:19.532Z,1006.69
2019-02-28T07:48:18.130Z,1006.66
2019-02-28T07:49:16.745Z,1006.63
2019-02-28T07:50:15.567Z,1006.64
2019-02-28T07:51:14.348Z,1006.64
2019-02-28T07:52:13.215Z,1006.66
2019-02-28T07:53:11.897Z,1006.73
2019-02-28T07:54:12.556Z,1006.66
2019-02-28T07:55:09.308Z,1006.66
2019-02-28T07:56:07.941Z,1006.7
2019-02-28T07:57:06.398Z,1006.73
2019-02-28T07:58:04.975Z,1006.77
2019-02-28T07:59:05.233Z,1006.75
2019-02-28T08:00:02.028Z,1006.76
2019-02-28T08:01:00.745Z,1006.81
2019-02-28T08:01:59.878Z,1006.77
2019-02-28T08:02:57.886Z,1006.84
2019-02-28T08:03:56.424Z,1006.75
2019-02-28T08:04:55.652Z,1006.79
2019-02-28T08:05:53.710Z,1006.77
2019-02-28T08:06:52.344Z,1006.78
2019-02-28T08:07:52.539Z,1006.77
2019-02-28T08:08:49.595Z,1006.79
2019-02-28T08:09:48.157Z,1006.76
2019-02-28T08:10:47.907Z,1006.75
2019-02-28T08:11:45.572Z,1006.72
2019-02-28T08:12:44.170Z,1006.76
2019-02-28T08:13:43.020Z,1006.77
2019-02-28T08:14:43.535Z,1006.71
2019-02-28T08:15:40.172Z,1006.72
2019-02-28T08:16:38.730Z,1006.66
2019-02-28T08:17:37.277Z,1006.69
2019-02-28T08:18:35.842Z,1006.67
2019-02-28T08:19:34.457Z,1006.68
2019-02-28T08:20:33.808Z,1006.68
2019-02-28T08:21:31.762Z,1006.69
2019-02-28T08:22:31.312Z,1006.67
2019-02-28T08:23:30.093Z,1006.63
2019-02-28T08:24:27.536Z,1006.62
2019-02-28T08:25:26.165Z,1006.62
2019-02-28T08:26:24.813Z,1006.59
2019-02-28T08:27:25.341Z,1006.58
2019-02-28T08:28:22.022Z,1006.59
2019-02-28T08:29:20.593Z,1006.71
2019-02-28T08:30:20.437Z,1006.76
2019-02-28T08:31:18.015Z,1006.78
2019-02-28T08:32:16.594Z,1006.8
2019-02-28T08:33:16.243Z,1006.76
2019-02-28T08:34:13.935Z,1006.79
2019-02-28T08:35:12.642Z,1006.78
2019-02-28T08:36:12.626Z,1006.79
2019-02-28T08:37:11.122Z,1006.84
2019-02-28T08:38:08.624Z,1006.85
2019-02-28T08:39:08.785Z,1006.82
2019-02-28T08:40:05.817Z,1006.89
2019-02-28T08:41:06.370Z,1006.83
2019-02-28T08:42:04.621Z,1006.82
2019-02-28T08:43:01.638Z,1006.75
2019-02-28T08:44:00.192Z,1006.84
2019-02-28T08:44:59.163Z,1006.77
2019-02-28T08:45:57.626Z,1006.85
2019-02-28T08:46:56.247Z,1006.83
2019-02-28T08:47:56.519Z,1006.82
2019-02-28T08:48:53.512Z,1006.75
2019-02-28T08:49:52.129Z,1006.77
2019-02-28T08:50:52.557Z,1006.71
2019-02-28T08:51:49.286Z,1006.69
2019-02-28T08:52:48.395Z,1006.7
2019-02-28T08:53:50.679Z,1006.72
2019-02-28T08:54:45.284Z,1006.66
2019-02-28T08:55:44.408Z,1006.7
2019-02-28T08:56:42.709Z,1006.69
2019-02-28T08:57:41.345Z,1006.69
2019-02-28T08:58:39.981Z,1006.72
2019-02-28T08:59:38.537Z,1006.69
2019-02-28T09:00:37.761Z,1006.72
2019-02-28T09:01:39.892Z,1006.7
2019-02-28T09:04:16.379Z,1006.68
2019-02-28T09:05:14.911Z,1006.69
2019-02-28T09:07:37.727Z,1006.75
2019-02-28T09:08:36.466Z,1006.7
2019-02-28T09:09:35.300Z,1006.73
2019-02-28T09:10:33.763Z,1006.69
2019-02-28T09:32:34.275Z,1006.44
2019-02-28T09:33:32.857Z,1006.38
2019-02-28T09:34:31.651Z,1006.42
2019-02-28T09:35:30.131Z,1006.42
2019-02-28T09:36:28.928Z,1006.45
2019-02-28T09:37:29.793Z,1006.49
2019-02-28T09:38:26.502Z,1006.51
2019-02-28T09:39:25.186Z,1006.48
2019-02-28T09:40:29.023Z,1006.5
2019-02-28T09:41:22.533Z,1006.54
2019-02-28T09:42:21.414Z,1006.5
2019-02-28T09:43:23.821Z,1006.54
2019-02-28T09:44:19.146Z,1006.57
2019-02-28T09:45:17.913Z,1006.57
2019-02-28T09:46:18.640Z,1006.51
2019-02-28T09:47:16.326Z,1006.53
2019-02-28T09:48:15.410Z,1006.59
2019-02-28T09:49:14.074Z,1006.58
2019-02-28T09:50:13.118Z,1006.58
2019-02-28T09:51:12.148Z,1006.54
2019-02-28T09:52:11.029Z,1006.58
2019-02-28T09:53:09.703Z,1006.52
2019-02-28T09:54:08.896Z,1006.47
2019-02-28T09:55:07.572Z,1006.45
2019-02-28T09:56:09.266Z,1006.46
2019-02-28T09:57:05.072Z,1006.41
2019-02-28T09:58:03.663Z,1006.38
2019-02-28T09:59:03.096Z,1006.44
2019-02-28T10:00:01.637Z,1006.31
2019-02-28T10:01:00.147Z,1006.34
2019-02-28T10:02:01.506Z,1006.31
2019-02-28T10:02:57.687Z,1006.31
2019-02-28T10:03:57.456Z,1006.26
2019-02-28T10:04:56.065Z,1006.32
2019-02-28T10:05:55.114Z,1006.27
2019-02-28T10:06:53.884Z,1006.28
2019-02-28T10:07:53.554Z,1006.24
2019-02-28T10:08:52.249Z,1006.23
2019-02-28T10:09:51.540Z,1006.16
2019-02-28T10:10:52.365Z,1006.18
2019-02-28T10:11:49.215Z,1006.13
2019-02-28T10:12:48.760Z,1006.15
2019-02-28T10:13:49.440Z,1006.11
2019-02-28T10:14:51.895Z,1006.17
2019-02-28T10:15:48.470Z,1006.16
2019-02-28T10:16:49.497Z,1006.23
2019-02-28T10:19:27.559Z,1006.27
2019-02-28T10:20:26.901Z,1006.26
2019-02-28T10:21:25.386Z,1006.2
2019-02-28T10:22:23.584Z,1006.3
2019-02-28T10:23:22.229Z,1006.27
2019-02-28T10:24:20.730Z,1006.33
2019-02-28T10:25:19.602Z,1006.28
2019-02-28T10:47:34.656Z,1005.99
2019-02-28T10:48:35.207Z,1005.99
2019-02-28T10:49:32.209Z,1005.96
2019-02-28T10:50:33.117Z,1006.06
2019-02-28T10:51:29.523Z,1005.98
2019-02-28T10:52:30.585Z,1005.96
2019-02-28T10:53:29.459Z,1005.99
2019-02-28T10:54:26.151Z,1005.97
2019-02-28T10:55:24.777Z,1006.03
2019-02-28T10:56:24.382Z,1005.94
2019-02-28T10:57:23.008Z,1005.97
2019-02-28T10:58:21.785Z,1005.96
2019-02-28T10:59:21.305Z,1005.86
2019-02-28T11:00:20.175Z,1005.95
2019-02-28T11:02:59.763Z,1005.88
2019-02-28T11:05:08.018Z,1005.8
2019-02-28T11:06:06.194Z,1005.82
2019-02-28T11:08:48.302Z,1005.91
2019-02-28T11:11:46.540Z,1005.91
2019-02-28T11:12:45.090Z,1005.84
2019-02-28T11:13:44.404Z,1005.92
2019-02-28T11:14:43.097Z,1005.89
2019-02-28T11:15:41.716Z,1005.89
2019-02-28T11:16:40.306Z,1005.88
2019-02-28T11:17:39.057Z,1005.87
2019-02-28T11:18:37.619Z,1005.89
2019-02-28T11:20:58.028Z,1005.91
2019-02-28T11:21:53.281Z,1005.84
2019-02-28T11:22:51.851Z,1005.83
2019-02-28T11:23:50.538Z,1005.85
2019-02-28T11:28:38.936Z,1005.77
2019-02-28T11:29:37.562Z,1005.74
2019-02-28T11:30:36.238Z,1005.73
2019-02-28T11:31:34.696Z,1005.69
2019-02-28T11:32:33.345Z,1005.74
2019-02-28T11:33:31.903Z,1005.66
2019-02-28T11:34:30.427Z,1005.7
2019-02-28T11:35:29.047Z,1005.66
2019-02-28T11:36:30.430Z,1005.82
2019-02-28T11:37:26.233Z,1005.68
2019-02-28T11:38:24.810Z,1005.58
2019-02-28T11:39:23.591Z,1005.6
2019-02-28T11:40:22.125Z,1005.58
2019-02-28T11:41:20.788Z,1005.65
2019-02-28T11:42:19.321Z,1005.69
2019-02-28T11:43:17.941Z,1005.64
2019-02-28T11:44:16.925Z,1005.69
2019-02-28T11:45:18.488Z,1005.74
2019-02-28T11:46:14.375Z,1005.63
2019-02-28T11:47:13.985Z,1005.63
2019-02-28T11:48:12.892Z,1005.4
2019-02-28T11:49:11.347Z,1005.56
2019-02-28T11:50:10.020Z,1005.59
2019-02-28T11:51:08.693Z,1005.56
2019-02-28T11:52:07.288Z,1005.56
2019-02-28T11:53:06.072Z,1005.53
2019-02-28T11:54:04.476Z,1005.48
2019-02-28T11:55:03.298Z,1005.46
2019-02-28T11:56:01.978Z,1005.37
2019-02-28T11:57:02.958Z,1005.39
2019-02-28T11:57:59.287Z,1005.49
2019-02-28T11:58:57.832Z,1005.48
2019-02-28T12:00:00.033Z,1005.34
2019-02-28T12:00:54.977Z,1005.5
2019-02-28T12:01:53.717Z,1005.43
2019-02-28T12:02:53.404Z,1005.43
2019-02-28T12:03:51.006Z,1005.43
2019-02-28T12:04:49.824Z,1005.4
2019-02-28T12:05:50.486Z,1005.35
2019-02-28T12:06:47.060Z,1005.36
2019-02-28T12:07:45.628Z,1005.39
2019-02-28T12:08:44.835Z,1005.28
2019-02-28T12:09:42.985Z,1005.32
2019-02-28T12:10:41.600Z,1005.27
2019-02-28T12:11:40.249Z,1005.19
2019-02-28T12:12:41.517Z,1005.26
2019-02-28T12:13:37.672Z,1005.33
2019-02-28T12:14:36.434Z,1005.35
2019-02-28T12:15:37.947Z,1005.3
2019-02-28T12:16:35.293Z,1005.26
2019-02-28T12:17:33.599Z,1005.21
2019-02-28T12:18:32.196Z,1005.21
2019-02-28T12:19:30.889Z,1005.14
2019-02-28T12:20:29.461Z,1005.21
2019-02-28T12:21:29.135Z,1005.1
2019-02-28T12:22:27.861Z,1005.1
2019-02-28T12:23:27.636Z,1005.06
2019-02-28T12:24:26.206Z,1005.11
2019-02-28T12:25:24.930Z,1005.04
2019-02-28T12:26:23.477Z,1005.04
2019-02-28T12:27:24.328Z,1005.05
2019-02-28T12:28:22.240Z,1005.08
2019-02-28T12:29:20.874Z,1005
2019-02-28T12:30:21.896Z,1004.95
2019-02-28T12:31:18.140Z,1004.97
2019-02-28T12:32:16.844Z,1004.89
2019-02-28T12:33:18.651Z,1004.94
2019-02-28T12:34:15.128Z,1004.94
2019-02-28T12:35:12.875Z,1004.94
2019-02-28T12:36:14.380Z,1004.89
2019-02-28T12:37:10.123Z,1004.98
2019-02-28T12:38:08.636Z,1004.87
2019-02-28T12:39:07.384Z,1004.91
2019-02-28T12:40:07.266Z,1004.9
2019-02-28T12:41:04.626Z,1004.86
2019-02-28T12:42:03.396Z,1004.87
2019-02-28T12:43:02.058Z,1004.88
2019-02-28T12:44:00.546Z,1004.85
2019-02-28T12:44:59.148Z,1004.83
2019-02-28T12:45:59.941Z,1004.78
2019-02-28T12:46:56.412Z,1004.71
2019-02-28T12:47:55.141Z,1004.8
2019-02-28T12:48:53.903Z,1004.78
2019-02-28T12:49:54.272Z,1004.71
2019-02-28T12:50:51.129Z,1004.79
2019-02-28T12:51:49.745Z,1004.79
2019-02-28T12:52:49.856Z,1004.74
2019-02-28T12:53:47.266Z,1004.66
2019-02-28T12:54:46.062Z,1004.68
2019-02-28T12:55:44.653Z,1004.64
2019-02-28T12:56:45.138Z,1004.69
2019-02-28T12:57:41.809Z,1004.66
2019-02-28T12:58:41.701Z,1004.59
2019-02-28T12:59:41.763Z,1004.59
2019-02-28T13:00:37.828Z,1004.63
2019-02-28T13:01:36.385Z,1004.66
2019-02-28T13:02:35.131Z,1004.59
2019-02-28T13:03:33.854Z,1004.53
2019-02-28T13:04:32.480Z,1004.52
2019-02-28T13:05:31.309Z,1004.53
2019-02-28T13:06:30.065Z,1004.63
2019-02-28T13:07:30.375Z,1004.51
2019-02-28T13:08:28.113Z,1004.5
2019-02-28T13:09:26.907Z,1004.49
2019-02-28T13:10:27.887Z,1004.49
2019-02-28T13:11:25.658Z,1004.47
2019-02-28T13:12:24.337Z,1004.48
2019-02-28T13:13:27.312Z,1004.48
2019-02-28T13:14:22.078Z,1004.46
2019-02-28T13:15:20.819Z,1004.49
2019-02-28T13:16:20.716Z,1004.52
2019-02-28T13:17:18.579Z,1004.41
2019-02-28T13:18:17.970Z,1004.38
2019-02-28T13:19:19.965Z,1004.41
2019-02-28T13:20:16.216Z,1004.33
2019-02-28T13:21:15.283Z,1004.34
2019-02-28T13:22:13.933Z,1004.32
2019-02-28T13:23:12.527Z,1004.35
2019-02-28T13:24:11.188Z,1004.37
2019-02-28T13:25:11.728Z,1004.39
2019-02-28T13:26:08.399Z,1004.37
2019-02-28T13:27:09.791Z,1004.29
2019-02-28T13:28:05.709Z,1004.3
2019-02-28T13:29:04.966Z,1004.34
2019-02-28T13:30:05.342Z,1004.38
2019-02-28T13:31:03.018Z,1004.33
2019-02-28T13:32:02.558Z,1004.31
2019-02-28T13:33:00.487Z,1004.2
2019-02-28T13:34:01.075Z,1004.28